Time;durP1;ratioP1;P1;durP2;ratioP2;P2;SDS_P1;SDS_P2;PMS_P1;PMS_P2;Temp;Humidity;BMP_temperature;BMP_pressure;BME280_temperature;BME280_humidity;BME280_pressure;Samples;Min_cycle;Max_cycle;Signal;HPM_P1;HPM_P2
2022/09/28 00:01:17;;;;;;;0.50;0.30;;;;;;;17.10;100.00;94405.03;4971223;28;20433;-57
2022/09/28 00:03:49;;;;;;;0.40;0.30;;;;;;;17.58;100.00;94476.69;4971342;28;20474;-57
2022/09/28 00:06:19;;;;;;;0.57;0.40;;;;;;;17.67;100.00;94492.69;4971248;28;20434;-57
2022/09/28 00:08:48;;;;;;;0.43;0.30;;;;;;;17.69;100.00;94480.50;4970981;28;20435;-57
2022/09/28 00:11:19;;;;;;;0.40;0.30;;;;;;;17.81;100.00;94468.25;4971160;28;20427;-57
2022/09/28 00:13:50;;;;;;;0.50;0.30;;;;;;;17.34;100.00;94382.88;4971213;28;20488;-57
2022/09/28 00:16:22;;;;;;;0.47;0.30;;;;;;;18.10;100.00;94463.44;4971244;28;20437;-57
2022/09/28 00:18:52;;;;;;;0.40;0.30;;;;;;;18.21;100.00;94451.13;4970951;28;20437;-57
2022/09/28 00:21:22;;;;;;;0.50;0.40;;;;;;;17.95;100.00;94468.69;4971075;28;20438;-57
2022/09/28 00:26:40;;;;;;;0.80;0.80;;;;;;;17.41;100.00;94476.06;4971196;28;20423;-57
2022/09/28 00:29:16;;;;;;;0.40;0.40;;;;;;;17.63;100.00;94473.78;4970728;28;20432;-57
2022/09/28 00:31:44;;;;;;;0.40;0.30;;;;;;;17.65;100.00;94439.44;4971245;28;20817;-57
2022/09/28 00:34:15;;;;;;;0.40;0.30;;;;;;;17.90;100.00;94471.59;4970868;28;20496;-57
2022/09/28 00:36:45;;;;;;;0.50;0.40;;;;;;;17.97;100.00;94461.06;4971050;28;20767;-57
2022/09/28 00:39:16;;;;;;;0.40;0.30;;;;;;;17.84;100.00;94454.94;4970763;28;20465;-57
2022/09/28 00:41:45;;;;;;;0.57;0.50;;;;;;;17.93;100.00;94454.84;4970587;28;20478;-57
2022/09/28 00:44:35;;;;;;;0.50;0.30;;;;;;;17.60;100.00;94455.72;4975637;28;20536;-58
2022/09/28 00:47:09;;;;;;;2.83;0.70;;;;;;;17.82;100.00;94461.75;4989993;28;20817;-57
2022/09/28 00:49:42;;;;;;;0.50;0.33;;;;;;;17.96;100.00;94464.91;4990198;28;20449;-57
2022/09/28 00:52:14;;;;;;;0.50;0.40;;;;;;;17.62;100.00;94377.69;4989781;28;20440;-57
2022/09/28 00:54:44;;;;;;;0.40;0.20;;;;;;;18.19;100.00;94449.91;4989866;28;20435;-57
2022/09/28 00:57:14;;;;;;;0.40;0.20;;;;;;;18.20;100.00;94446.88;4990411;28;20453;-57
2022/09/28 00:59:43;;;;;;;0.40;0.30;;;;;;;17.38;100.00;94389.13;4990111;28;20438;-57
2022/09/28 01:02:11;;;;;;;0.40;0.40;;;;;;;17.73;100.00;94462.63;4990086;28;20827;-57
2022/09/28 01:04:41;;;;;;;0.50;0.30;;;;;;;17.39;100.00;94446.94;4989521;28;20480;-57
2022/09/28 01:07:11;;;;;;;0.50;0.43;;;;;;;17.61;100.00;94470.66;4990029;28;20426;-57
2022/09/28 01:09:40;;;;;;;0.50;0.30;;;;;;;17.31;100.00;94474.59;4990046;28;20435;-57
2022/09/28 01:12:08;;;;;;;0.47;0.30;;;;;;;17.45;100.00;94467.06;4990065;28;20429;-57
2022/09/28 01:14:37;;;;;;;0.60;0.40;;;;;;;17.61;100.00;94457.28;4989371;28;20434;-57
2022/09/28 01:17:12;;;;;;;0.40;0.30;;;;;;;17.77;100.00;94455.50;4989981;28;20438;-57
2022/09/28 01:20:10;;;;;;;0.57;0.47;;;;;;;17.68;100.00;94464.78;4989843;28;20441;-57
2022/09/28 01:23:11;;;;;;;0.40;0.30;;;;;;;18.11;100.00;94465.00;4997725;28;20836;-57
2022/09/28 01:25:45;;;;;;;0.70;0.50;;;;;;;17.87;100.00;94467.69;4989657;28;20505;-57
2022/09/28 01:28:17;;;;;;;1.80;0.57;;;;;;;17.76;100.00;94461.97;4989697;28;20441;-57
2022/09/28 01:30:51;;;;;;;0.40;0.30;;;;;;;17.45;100.00;94464.38;4989787;28;20433;-57
2022/09/28 01:33:25;;;;;;;0.47;0.30;;;;;;;17.86;100.00;94462.66;4989619;28;20475;-57
2022/09/28 01:35:58;;;;;;;0.87;0.30;;;;;;;17.83;100.00;94452.59;4989762;28;20429;-57
2022/09/28 01:38:33;;;;;;;0.50;0.30;;;;;;;17.68;100.00;94464.78;4989305;28;20435;-57
2022/09/28 01:41:03;;;;;;;0.50;0.30;;;;;;;17.53;100.00;94465.44;4989094;28;20481;-57
2022/09/28 01:43:37;;;;;;;0.50;0.40;;;;;;;17.70;100.00;94470.56;4989164;28;20446;-57
2022/09/28 01:46:12;;;;;;;0.50;0.40;;;;;;;17.88;100.00;94471.16;4989336;28;20923;-56
2022/09/28 01:48:46;;;;;;;0.50;0.47;;;;;;;17.86;100.00;94465.34;4989079;28;20502;-56
2022/09/28 01:51:20;;;;;;;0.50;0.50;;;;;;;17.52;100.00;94469.19;4989214;28;20421;-56
2022/09/28 01:53:52;;;;;;;0.53;0.40;;;;;;;17.08;100.00;94479.56;4989538;28;20438;-57
2022/09/28 01:56:27;;;;;;;0.60;0.33;;;;;;;17.43;100.00;94477.31;4989250;28;20871;-57
2022/09/28 01:59:03;;;;;;;0.50;0.30;;;;;;;17.59;100.00;94472.91;4989040;28;20928;-56
2022/09/28 02:01:37;;;;;;;0.50;0.30;;;;;;;17.78;100.00;94477.75;4989126;28;20847;-56
2022/09/28 02:04:12;;;;;;;7.73;0.47;;;;;;;17.69;100.00;94475.16;4988805;28;20472;-56
2022/09/28 02:06:48;;;;;;;0.47;0.40;;;;;;;17.77;100.00;94470.81;4991648;28;20434;-56
2022/09/28 02:09:21;;;;;;;0.40;0.30;;;;;;;17.71;100.00;94472.91;4992487;28;20444;-56
2022/09/28 02:11:55;;;;;;;0.40;0.20;;;;;;;17.20;100.00;94494.13;4992505;28;20441;-56
2022/09/28 02:14:26;;;;;;;0.53;0.40;;;;;;;17.45;100.00;94490.38;4992459;28;20436;-56
2022/09/28 02:16:56;;;;;;;0.80;0.60;;;;;;;16.88;100.00;94501.00;4992550;28;20437;-57
2022/09/28 02:19:27;;;;;;;1.17;1.07;;;;;;;16.75;100.00;94513.53;4992166;28;20437;-57
2022/09/28 02:22:01;;;;;;;0.50;0.30;;;;;;;16.52;100.00;94507.72;4992311;28;20943;-57
2022/09/28 02:24:37;;;;;;;0.40;0.30;;;;;;;16.83;100.00;94512.69;4992064;28;20476;-57
2022/09/28 02:27:13;;;;;;;0.40;0.30;;;;;;;17.39;100.00;94497.84;4991961;28;20784;-57
2022/09/28 02:29:43;;;;;;;0.40;0.30;;;;;;;17.19;100.00;94490.66;4991843;28;20434;-56
2022/09/28 02:32:11;;;;;;;0.40;0.40;;;;;;;16.96;100.00;94489.44;4992111;28;20442;-56
2022/09/28 02:34:40;;;;;;;0.50;0.40;;;;;;;17.32;100.00;94472.72;4991292;28;20438;-56
2022/09/28 02:37:08;;;;;;;0.40;0.30;;;;;;;17.64;100.00;94469.22;4991680;28;20422;-56
2022/09/28 02:39:36;;;;;;;0.40;0.20;;;;;;;17.77;100.00;94476.94;4992074;28;20438;-56
2022/09/28 02:42:16;;;;;;;0.40;0.23;;;;;;;17.95;100.00;94476.72;4992218;28;20437;-56
2022/09/28 02:45:01;;;;;;;0.40;0.30;;;;;;;17.66;100.00;94470.44;4991702;28;20498;-56
2022/09/28 02:47:46;;;;;;;0.80;0.80;;;;;;;17.44;100.00;94472.72;4991706;28;20901;-57
2022/09/28 02:50:22;;;;;;;0.40;0.20;;;;;;;17.30;100.00;94419.50;4991730;28;20426;-58
2022/09/28 02:53:22;;;;;;;0.50;0.30;;;;;;;17.72;100.00;94468.34;4992083;28;20433;-57
2022/09/28 02:56:05;;;;;;;0.40;0.30;;;;;;;17.85;100.00;94466.44;4991681;28;20422;-58
2022/09/28 02:58:41;;;;;;;0.40;0.30;;;;;;;17.70;100.00;94463.31;4991582;28;20440;-58
2022/09/28 03:01:23;;;;;;;0.40;0.20;;;;;;;17.70;100.00;94466.00;4991613;28;20443;-57
2022/09/28 03:03:57;;;;;;;0.43;0.27;;;;;;;17.83;100.00;94457.97;4991688;28;20782;-57
2022/09/28 03:06:32;;;;;;;0.50;0.40;;;;;;;17.84;100.00;94460.31;4991800;28;20975;-57
2022/09/28 03:09:05;;;;;;;0.50;0.30;;;;;;;17.79;100.00;94468.56;4991467;28;20444;-57
2022/09/28 03:11:39;;;;;;;0.60;0.40;;;;;;;17.83;100.00;94479.41;4991274;28;20449;-57
2022/09/28 03:14:07;;;;;;;0.50;0.30;;;;;;;17.41;100.00;94479.53;4991124;28;20448;-57
2022/09/28 03:16:37;;;;;;;0.50;0.30;;;;;;;17.34;100.00;94481.19;4991404;28;20434;-57
2022/09/28 03:19:05;;;;;;;0.40;0.30;;;;;;;17.49;100.00;94485.91;4990897;28;20824;-57
2022/09/28 03:21:34;;;;;;;0.93;0.60;;;;;;;17.50;100.00;94493.63;4991665;28;20437;-57
2022/09/28 03:24:04;;;;;;;0.90;0.67;;;;;;;17.36;100.00;94492.34;4991292;28;20513;-57
2022/09/28 03:26:33;;;;;;;0.40;0.30;;;;;;;17.47;100.00;94486.25;4990417;28;20473;-57
2022/09/28 03:29:01;;;;;;;0.50;0.40;;;;;;;17.59;100.00;94493.56;4974146;28;20439;-57
2022/09/28 03:31:30;;;;;;;0.50;0.43;;;;;;;17.31;100.00;94473.81;4971396;28;20466;-57
2022/09/28 03:33:59;;;;;;;0.50;0.30;;;;;;;17.55;100.00;94495.34;4971830;28;20813;-57
2022/09/28 03:36:28;;;;;;;0.60;0.50;;;;;;;16.96;100.00;94500.16;4971176;28;20798;-58
2022/09/28 03:38:58;;;;;;;1.70;0.93;;;;;;;16.51;100.00;94516.06;4972101;28;20430;-57
2022/09/28 03:41:27;;;;;;;0.60;0.50;;;;;;;16.42;100.00;94510.75;4971410;28;20495;-57
2022/09/28 03:43:55;;;;;;;1.10;1.10;;;;;;;16.27;100.00;94510.53;4971707;28;20438;-57
2022/09/28 03:46:24;;;;;;;0.50;0.47;;;;;;;15.20;100.00;94323.19;4971777;28;20474;-57
2022/09/28 03:48:52;;;;;;;0.47;0.30;;;;;;;16.78;100.00;94501.41;4971651;28;20435;-57
2022/09/28 03:51:22;;;;;;;0.50;0.30;;;;;;;17.04;100.00;94507.34;4971675;28;20434;-57
2022/09/28 03:53:50;;;;;;;0.40;0.30;;;;;;;16.99;100.00;94494.94;4971972;28;20434;-57
2022/09/28 03:56:18;;;;;;;0.80;0.80;;;;;;;16.71;100.00;94501.94;4972015;28;20423;-57
2022/09/28 03:58:47;;;;;;;0.40;0.27;;;;;;;17.05;100.00;94503.56;4971553;28;20439;-57
2022/09/28 04:01:16;;;;;;;0.50;0.47;;;;;;;16.10;100.00;94321.66;4971206;28;20423;-57
2022/09/28 04:03:45;;;;;;;0.50;0.30;;;;;;;17.41;100.00;94502.84;4971513;28;20443;-56
2022/09/28 04:06:14;;;;;;;0.47;0.43;;;;;;;17.02;100.00;94438.06;4971444;28;20838;-57
2022/09/28 04:08:44;;;;;;;1.27;0.40;;;;;;;17.48;100.00;94503.13;4971583;28;20939;-57
2022/09/28 04:11:12;;;;;;;0.50;0.43;;;;;;;17.33;100.00;94501.06;4971186;28;20431;-57
2022/09/28 04:13:41;;;;;;;0.40;0.20;;;;;;;17.35;100.00;94518.38;4970973;28;20447;-57
2022/09/28 04:16:10;;;;;;;2.03;0.40;;;;;;;17.04;100.00;94529.53;4971473;28;20442;-57
2022/09/28 04:18:39;;;;;;;1.37;0.40;;;;;;;17.05;100.00;94528.41;4970565;28;20463;-57
2022/09/28 04:21:11;;;;;;;0.97;0.50;;;;;;;17.32;100.00;94531.63;4970980;28;20430;-57
2022/09/28 04:23:40;;;;;;;0.47;0.30;;;;;;;17.54;100.00;94526.72;4971073;28;20935;-57
2022/09/28 04:26:16;;;;;;;0.57;0.47;;;;;;;17.29;100.00;94527.72;4971178;28;20482;-57
2022/09/28 04:31:38;;;;;;;0.60;0.40;;;;;;;16.74;100.00;94476.41;4971052;28;20438;-57
2022/09/28 04:34:07;;;;;;;0.40;0.23;;;;;;;17.41;100.00;94521.63;4971059;28;20441;-57
2022/09/28 04:36:36;;;;;;;0.70;0.63;;;;;;;16.88;100.00;94517.06;4970749;28;20918;-56
2022/09/28 04:39:04;;;;;;;1.43;0.70;;;;;;;16.86;100.00;94533.47;4970893;28;20445;-57
2022/09/28 04:41:34;;;;;;;0.50;0.30;;;;;;;17.10;100.00;94528.19;4970217;28;20493;-58
2022/09/28 04:44:03;;;;;;;0.50;0.43;;;;;;;16.94;100.00;94438.13;4970621;28;20434;-56
2022/09/28 04:46:31;;;;;;;0.50;0.40;;;;;;;17.40;100.00;94528.88;4970767;28;20470;-56
2022/09/28 04:49:00;;;;;;;0.40;0.20;;;;;;;17.52;100.00;94534.31;4970698;28;20439;-57
2022/09/28 04:51:31;;;;;;;0.50;0.30;;;;;;;17.64;100.00;94534.31;4970610;28;20430;-57
2022/09/28 04:53:59;;;;;;;0.50;0.40;;;;;;;17.62;100.00;94539.25;4970864;28;20472;-58
2022/09/28 04:56:28;;;;;;;0.50;0.30;;;;;;;17.35;100.00;94533.66;4970397;28;20441;-57
2022/09/28 04:58:57;;;;;;;0.50;0.40;;;;;;;17.65;100.00;94537.78;4970379;28;20434;-57
2022/09/28 05:01:26;;;;;;;0.50;0.40;;;;;;;17.76;100.00;94531.66;4970628;28;20442;-57
2022/09/28 05:03:55;;;;;;;0.40;0.30;;;;;;;17.78;100.00;94531.34;4970634;28;20435;-56
2022/09/28 05:06:26;;;;;;;2.83;0.80;;;;;;;17.77;100.00;94529.75;4970464;28;20477;-57
2022/09/28 05:08:56;;;;;;;0.40;0.30;;;;;;;17.83;100.00;94535.69;4970852;28;20426;-57
2022/09/28 05:11:24;;;;;;;0.40;0.30;;;;;;;17.56;100.00;94534.41;4970511;28;20431;-57
2022/09/28 05:13:53;;;;;;;0.50;0.30;;;;;;;17.86;100.00;94529.69;4970532;28;20443;-58
2022/09/28 05:16:24;;;;;;;1.17;0.40;;;;;;;17.48;100.00;94528.00;4969843;28;20446;-57
2022/09/28 05:18:55;;;;;;;0.50;0.50;;;;;;;17.70;100.00;94540.25;4970377;28;20439;-58
2022/09/28 05:21:28;;;;;;;1.90;0.50;;;;;;;17.59;100.00;94541.78;4970692;28;20457;-56
2022/09/28 05:23:57;;;;;;;0.80;0.50;;;;;;;17.23;100.00;94537.06;4970656;28;20941;-57
2022/09/28 05:26:25;;;;;;;0.80;0.60;;;;;;;17.80;100.00;94545.19;4970634;28;20494;-57
2022/09/28 05:28:54;;;;;;;0.50;0.30;;;;;;;17.66;100.00;94556.22;4970484;28;20434;-57
2022/09/28 05:31:25;;;;;;;3.07;0.60;;;;;;;17.28;100.00;94562.88;4970419;28;20508;-57
2022/09/28 05:33:54;;;;;;;0.60;0.60;;;;;;;17.08;100.00;94562.56;4969767;28;20827;-57
2022/09/28 05:36:22;;;;;;;0.67;0.50;;;;;;;17.67;100.00;94565.03;4970438;28;20451;-57
2022/09/28 05:38:51;;;;;;;0.40;0.30;;;;;;;17.97;100.00;94553.03;4987641;28;20438;-57
2022/09/28 05:41:19;;;;;;;0.60;0.40;;;;;;;17.51;100.00;94567.53;4989654;28;20496;-57
2022/09/28 05:43:47;;;;;;;0.43;0.30;;;;;;;17.07;100.00;94528.88;4991596;28;20437;-57
2022/09/28 05:46:17;;;;;;;0.40;0.30;;;;;;;17.41;100.00;94557.22;4991125;28;20860;-57
2022/09/28 05:48:47;;;;;;;0.77;0.77;;;;;;;17.84;100.00;94564.84;4992156;28;20562;-57
2022/09/28 05:51:15;;;;;;;0.90;0.90;;;;;;;17.89;100.00;94561.94;4991140;28;20434;-56
2022/09/28 05:53:43;;;;;;;0.67;0.67;;;;;;;17.33;100.00;94531.31;4991291;28;21021;-56
2022/09/28 05:56:12;;;;;;;9.10;1.07;;;;;;;17.37;100.00;94559.00;4991244;28;20440;-57
2022/09/28 05:58:40;;;;;;;0.40;0.27;;;;;;;17.98;100.00;94561.84;4991414;28;20433;-56
2022/09/28 06:01:08;;;;;;;0.70;0.70;;;;;;;17.65;100.00;94498.38;4991674;28;20433;-56
2022/09/28 06:03:36;;;;;;;0.50;0.50;;;;;;;17.86;100.00;94553.81;4991217;28;20487;-58
2022/09/28 06:06:09;;;;;;;0.40;0.30;;;;;;;17.51;100.00;94521.97;4991267;28;20432;-57
2022/09/28 06:08:41;;;;;;;0.40;0.30;;;;;;;18.08;100.00;94575.63;4991070;28;20862;-55
2022/09/28 06:11:12;;;;;;;0.83;0.83;;;;;;;18.19;100.00;94557.19;4990079;28;20517;-55
2022/09/28 06:13:40;;;;;;;0.60;0.37;;;;;;;18.50;100.00;94562.78;4990769;28;20476;-56
2022/09/28 06:16:14;;;;;;;0.50;0.30;;;;;;;18.39;100.00;94583.13;4991246;28;20484;-55
2022/09/28 06:18:46;;;;;;;0.40;0.30;;;;;;;18.21;100.00;94587.13;4991126;28;20525;-56
2022/09/28 06:21:16;;;;;;;0.50;0.40;;;;;;;18.29;100.00;94581.66;4991070;28;20433;-55
2022/09/28 06:23:45;;;;;;;0.50;0.40;;;;;;;18.14;100.00;94584.22;4991443;28;20456;-55
2022/09/28 06:26:17;;;;;;;2.30;0.87;;;;;;;18.12;100.00;94578.41;4990638;28;20471;-56
2022/09/28 06:28:45;;;;;;;0.50;0.50;;;;;;;18.48;100.00;94575.75;4990892;28;20496;-55
2022/09/28 06:31:14;;;;;;;0.40;0.30;;;;;;;18.56;100.00;94576.75;4990498;28;20438;-56
2022/09/28 06:33:43;;;;;;;3.50;0.50;;;;;;;18.42;100.00;94574.38;4990481;28;20438;-56
2022/09/28 06:36:12;;;;;;;14.30;0.50;;;;;;;18.18;100.00;94579.75;4990644;28;20426;-55
2022/09/28 06:38:42;;;;;;;0.50;0.30;;;;;;;18.36;100.00;94549.69;4990630;28;20438;-55
2022/09/28 06:41:11;;;;;;;0.47;0.33;;;;;;;18.64;100.00;94568.59;4945486;28;1321924;-55
2022/09/28 06:43:39;;;;;;;0.60;0.40;;;;;;;18.74;100.00;94572.72;4991879;28;20195;-57
2022/09/28 06:46:09;;;;;;;0.60;0.40;;;;;;;18.75;100.00;94555.47;4991633;28;20426;-55
2022/09/28 06:48:37;;;;;;;1.00;0.80;;;;;;;17.64;100.00;94526.28;4991572;28;20482;-56
2022/09/28 06:51:06;;;;;;;0.93;0.93;;;;;;;18.02;100.00;94581.50;4991472;28;20450;-55
2022/09/28 06:53:34;;;;;;;0.73;0.70;;;;;;;18.12;100.00;94533.59;4991459;28;20824;-55
2022/09/28 06:56:05;;;;;;;1.47;0.53;;;;;;;18.25;100.00;94582.66;4991558;28;20426;-56
2022/09/28 06:58:34;;;;;;;3.37;2.73;;;;;;;18.42;100.00;94583.22;4991627;28;20876;-56
2022/09/28 07:01:02;;;;;;;0.40;0.37;;;;;;;16.75;100.00;94411.06;4992097;28;20425;-55
2022/09/28 07:03:31;;;;;;;0.40;0.30;;;;;;;18.11;100.00;94583.00;4991749;28;20438;-55
2022/09/28 07:05:59;;;;;;;0.90;0.90;;;;;;;18.13;100.00;94527.13;4991501;28;20430;-55
2022/09/28 07:08:28;;;;;;;0.90;0.60;;;;;;;18.27;100.00;94581.22;4991393;28;20481;-55
2022/09/28 07:10:56;;;;;;;0.50;0.30;;;;;;;18.50;100.00;94583.47;4991352;28;20440;-55
2022/09/28 07:13:28;;;;;;;0.80;0.50;;;;;;;18.55;100.00;94569.81;4991731;28;20438;-55
2022/09/28 07:16:16;;;;;;;0.60;0.50;;;;;;;18.78;100.00;94571.69;4991308;28;20503;-55
2022/09/28 07:18:49;;;;;;;0.70;0.57;;;;;;;18.25;100.00;94470.00;4991221;28;20526;-55
2022/09/28 07:21:18;;;;;;;0.50;0.50;;;;;;;19.24;100.00;94564.97;4991244;28;20433;-55
2022/09/28 07:23:56;;;;;;;0.50;0.30;;;;;;;19.76;100.00;94554.13;4990921;28;20948;-55
2022/09/28 07:26:24;;;;;;;0.83;0.83;;;;;;;19.49;100.00;94565.69;4991573;28;20872;-55
2022/09/28 07:28:55;;;;;;;0.50;0.30;;;;;;;19.35;100.00;94565.28;4991168;28;20478;-55
2022/09/28 07:31:25;;;;;;;1.27;1.00;;;;;;;18.98;100.00;94568.06;4991480;28;20438;-55
2022/09/28 07:33:55;;;;;;;0.63;0.60;;;;;;;19.18;100.00;94571.69;4991387;28;20448;-55
2022/09/28 07:36:23;;;;;;;0.60;0.40;;;;;;;19.44;100.00;94547.91;4991170;28;20434;-55
2022/09/28 07:38:51;;;;;;;0.60;0.30;;;;;;;19.66;100.00;94527.72;4991105;28;20779;-55
2022/09/28 07:41:31;;;;;;;1.43;1.30;;;;;;;19.63;100.00;94569.53;4990480;28;20488;-55
2022/09/28 07:44:04;;;;;;;0.63;0.63;;;;;;;18.79;100.00;94495.41;4990793;28;20463;-55
2022/09/28 07:46:33;;;;;;;0.87;0.87;;;;;;;19.74;100.00;94553.69;4991390;28;20434;-55
2022/09/28 07:49:04;;;;;;;0.60;0.60;;;;;;;20.54;100.00;94556.81;4990445;28;20481;-55
2022/09/28 07:51:38;;;;;;;0.80;0.80;;;;;;;20.09;100.00;94492.69;4991149;28;20771;-54
2022/09/28 07:54:07;;;;;;;1.37;1.07;;;;;;;20.19;100.00;94570.19;4991106;28;20438;-55
2022/09/28 07:56:35;;;;;;;3.57;0.50;;;;;;;20.43;100.00;94573.88;4991189;28;20820;-54
2022/09/28 07:59:04;;;;;;;1.13;1.07;;;;;;;20.72;100.00;94568.78;4990434;28;20955;-54
2022/09/28 08:01:33;;;;;;;6.23;0.97;;;;;;;20.42;100.00;94566.91;4991124;28;20429;-54
2022/09/28 08:04:02;;;;;;;0.50;0.30;;;;;;;21.52;100.00;94568.97;4989917;28;20427;-54
2022/09/28 08:06:30;;;;;;;0.80;0.80;;;;;;;21.13;100.00;94489.25;4990421;28;20516;-52
2022/09/28 08:09:00;;;;;;;0.77;0.77;;;;;;;21.75;100.00;94565.53;4990508;28;20482;-52
2022/09/28 08:11:29;;;;;;;6.20;1.23;;;;;;;22.55;95.19;94573.47;4990037;28;20442;-54
2022/09/28 08:13:59;;;;;;;4.90;0.53;;;;;;;21.89;96.37;94572.00;4990334;28;20555;-53
2022/09/28 08:16:29;;;;;;;1.00;1.00;;;;;;;22.11;98.21;94579.31;4990351;28;20475;-52
2022/09/28 08:18:57;;;;;;;0.70;0.53;;;;;;;21.58;98.41;94577.53;4990332;28;20454;-52
2022/09/28 08:24:11;;;;;;;1.10;1.10;;;;;;;24.11;84.97;94563.53;4990335;28;20766;-54
2022/09/28 08:26:40;;;;;;;0.50;0.40;;;;;;;24.38;81.39;94575.00;4990749;28;20423;-54
2022/09/28 08:29:08;;;;;;;0.60;0.60;;;;;;;24.98;75.36;94559.22;4990058;28;20976;-53
2022/09/28 08:31:38;;;;;;;0.50;0.30;;;;;;;24.93;76.34;94563.06;4990354;28;20426;-53
2022/09/28 08:34:06;;;;;;;0.60;0.40;;;;;;;25.83;74.53;94563.13;4990310;28;20427;-52
2022/09/28 08:36:35;;;;;;;4.27;1.00;;;;;;;25.41;72.28;94560.19;4989814;28;20473;-52
2022/09/28 08:39:03;;;;;;;1.67;0.70;;;;;;;25.45;70.53;94564.50;4990348;28;20940;-51
2022/09/28 08:41:40;;;;;;;0.63;0.63;;;;;;;26.15;70.41;94536.03;4989283;28;20482;-51
2022/09/28 08:44:14;;;;;;;0.80;0.60;;;;;;;26.35;68.06;94546.16;4989453;28;20444;-51
2022/09/28 08:46:48;;;;;;;0.53;0.53;;;;;;;26.47;68.98;94544.97;4989895;28;20435;-53
2022/09/28 08:49:21;;;;;;;0.70;0.70;;;;;;;26.90;65.42;94543.78;4989653;28;20489;-51
2022/09/28 08:52:03;;;;;;;0.47;0.33;;;;;;;26.58;63.32;94411.78;4990160;28;20891;-51
2022/09/28 08:54:40;;;;;;;2.50;0.90;;;;;;;27.83;62.68;94547.75;4989743;28;20434;-51
2022/09/28 08:57:15;;;;;;;0.50;0.40;;;;;;;27.78;63.20;94542.72;4990163;28;20994;-50
2022/09/28 08:59:51;;;;;;;0.67;0.67;;;;;;;26.93;62.90;94545.75;4990155;28;20844;-51
2022/09/28 09:02:25;;;;;;;1.33;0.47;;;;;;;28.63;58.93;94545.72;4989524;28;20954;-51
2022/09/28 09:04:55;;;;;;;0.50;0.40;;;;;;;28.74;58.16;94532.75;4989661;28;20482;-51
2022/09/28 09:07:56;;;;;;;0.80;0.57;;;;;;;28.57;56.74;94470.16;4989766;28;20432;-51
2022/09/28 09:10:45;;;;;;;0.40;0.30;;;;;;;29.48;56.43;94523.03;4989833;28;20472;-51
2022/09/28 09:13:42;;;;;;;0.67;0.40;;;;;;;30.05;56.95;94510.22;4989517;28;20442;-51
2022/09/28 09:16:20;;;;;;;0.50;0.47;;;;;;;28.82;54.69;94504.25;4989303;28;20453;-51
2022/09/28 09:18:58;;;;;;;0.50;0.40;;;;;;;28.53;55.74;94513.84;4989439;28;20938;-51
2022/09/28 09:21:39;;;;;;;0.53;0.53;;;;;;;28.73;56.55;94514.84;4989582;28;20439;-51
2022/09/28 09:24:26;;;;;;;0.57;0.37;;;;;;;28.90;54.41;94518.56;4989705;28;20490;-51
2022/09/28 09:27:06;;;;;;;0.60;0.60;;;;;;;29.73;53.23;94465.38;4988998;28;20457;-52
2022/09/28 09:29:51;;;;;;;0.50;0.40;;;;;;;28.76;54.55;94518.72;4989292;28;20503;-52
2022/09/28 09:32:34;;;;;;;0.40;0.30;;;;;;;30.57;51.40;94518.00;4989679;28;20789;-51
2022/09/28 09:35:42;;;;;;;0.40;0.40;;;;;;;29.19;54.04;94502.69;4989748;28;20429;-52
2022/09/28 09:38:27;;;;;;;0.50;0.50;;;;;;;30.66;53.32;94491.66;4989623;28;20449;-52
2022/09/28 09:41:07;;;;;;;0.77;0.57;;;;;;;30.04;54.48;94495.00;4989206;28;20479;-52
2022/09/28 09:44:09;;;;;;;0.40;0.40;;;;;;;30.22;52.92;94496.66;4989346;28;20437;-52
2022/09/28 09:46:42;;;;;;;1.13;0.43;;;;;;;30.82;53.10;94504.69;4989303;28;20428;-52
2022/09/28 09:49:17;;;;;;;0.30;0.27;;;;;;;31.26;51.82;94496.06;4989140;28;20476;-53
2022/09/28 09:51:53;;;;;;;0.40;0.40;;;;;;;31.94;50.47;94498.97;4989244;28;20435;-52
2022/09/28 09:54:27;;;;;;;0.50;0.40;;;;;;;31.84;49.13;94504.69;4989287;28;20432;-52
2022/09/28 09:57:02;;;;;;;0.80;0.80;;;;;;;30.97;47.83;94497.78;4989612;28;20422;-52
2022/09/28 09:59:34;;;;;;;1.13;0.50;;;;;;;30.08;48.81;94460.16;4989352;28;20795;-52
2022/09/28 10:02:09;;;;;;;0.40;0.40;;;;;;;31.45;49.81;94496.53;4980432;28;20939;-52
2022/09/28 10:04:43;;;;;;;1.70;1.03;;;;;;;31.39;47.71;94475.06;4969813;28;20430;-52
2022/09/28 10:07:20;;;;;;;0.40;0.40;;;;;;;31.46;49.47;94478.88;4969925;28;20433;-53
2022/09/28 10:09:50;;;;;;;0.43;0.37;;;;;;;30.86;49.03;94486.25;4970038;28;20487;-52
2022/09/28 10:12:22;;;;;;;0.40;0.30;;;;;;;32.89;49.30;94484.22;4970254;28;21125;-52
2022/09/28 10:14:50;;;;;;;0.60;0.40;;;;;;;30.69;48.03;94479.09;4970138;28;20437;-53
2022/09/28 10:17:25;;;;;;;0.80;0.40;;;;;;;31.24;46.83;94475.78;4969826;28;20453;-53
2022/09/28 10:19:55;;;;;;;0.60;0.60;;;;;;;32.24;44.87;94470.50;4970110;28;20426;-53
2022/09/28 10:22:27;;;;;;;0.50;0.47;;;;;;;32.29;46.45;94464.50;4970088;28;20791;-53
2022/09/28 10:24:57;;;;;;;4.80;0.40;;;;;;;32.53;47.21;94454.16;4970034;28;20442;-53
2022/09/28 10:27:29;;;;;;;0.40;0.30;;;;;;;31.99;42.58;94456.59;4971267;28;20923;-53
2022/09/28 10:30:02;;;;;;;0.60;0.50;;;;;;;31.70;46.14;94444.72;4972927;28;20485;-53
2022/09/28 10:32:38;;;;;;;1.17;0.40;;;;;;;31.71;47.24;94448.97;4972810;28;20520;-53
2022/09/28 10:35:21;;;;;;;0.63;0.63;;;;;;;31.41;42.28;94341.22;4972688;28;20437;-53
2022/09/28 10:37:58;;;;;;;0.40;0.30;;;;;;;32.42;37.10;94443.41;4973373;28;20433;-53
2022/09/28 10:40:31;;;;;;;0.30;0.20;;;;;;;33.19;35.01;94440.63;4972638;28;20473;-54
2022/09/28 10:43:01;;;;;;;0.30;0.20;;;;;;;32.03;36.18;94430.63;4972715;28;20477;-54
2022/09/28 10:45:36;;;;;;;0.30;0.30;;;;;;;32.39;34.17;94414.09;4972679;28;20448;-54
2022/09/28 10:48:14;;;;;;;0.40;0.30;;;;;;;33.34;34.25;94421.00;4972867;28;20491;-52
2022/09/28 10:50:43;;;;;;;0.30;0.20;;;;;;;31.05;33.96;94422.56;4972912;28;20477;-53
2022/09/28 10:53:19;;;;;;;0.50;0.30;;;;;;;32.41;33.67;94422.66;4972762;28;20429;-53
2022/09/28 10:55:59;;;;;;;0.30;0.20;;;;;;;33.32;33.89;94415.94;4972561;28;20934;-53
2022/09/28 10:58:31;;;;;;;0.30;0.20;;;;;;;34.42;31.17;94414.13;4972739;28;20937;-53
2022/09/28 11:01:07;;;;;;;0.33;0.27;;;;;;;32.69;33.15;94414.94;4972578;28;20430;-54
2022/09/28 11:03:49;;;;;;;0.30;0.23;;;;;;;32.55;31.78;94403.13;4972232;28;21020;-54
2022/09/28 11:06:24;;;;;;;0.57;0.30;;;;;;;32.81;33.11;94400.50;4972825;28;20432;-54
2022/09/28 11:08:57;;;;;;;0.30;0.30;;;;;;;33.31;31.54;94399.88;4972007;28;20575;-54
2022/09/28 11:11:26;;;;;;;0.40;0.37;;;;;;;33.54;31.15;94385.88;4972419;28;20818;-54
2022/09/28 11:13:59;;;;;;;0.40;0.30;;;;;;;33.40;30.88;94400.00;4972649;28;20450;-54
2022/09/28 11:16:29;;;;;;;3.70;0.30;;;;;;;33.76;32.14;94397.75;4972143;28;20434;-54
2022/09/28 11:18:59;;;;;;;0.40;0.30;;;;;;;33.11;30.29;94392.63;4972426;28;20887;-54
2022/09/28 11:21:31;;;;;;;0.40;0.20;;;;;;;32.16;30.96;94378.63;4972144;28;20856;-54
2022/09/28 11:24:06;;;;;;;0.30;0.20;;;;;;;32.41;30.10;94334.13;4971770;28;20437;-54
2022/09/28 11:26:41;;;;;;;0.40;0.30;;;;;;;33.31;31.13;94384.19;4971862;28;20443;-54
2022/09/28 11:29:22;;;;;;;2.10;0.50;;;;;;;32.83;30.10;94390.63;4972060;28;20484;-54
2022/09/28 11:31:51;;;;;;;0.40;0.40;;;;;;;32.46;31.39;94369.28;4972240;28;20430;-54
2022/09/28 11:34:25;;;;;;;0.37;0.30;;;;;;;33.20;30.92;94373.50;4972043;28;20442;-54
2022/09/28 11:37:41;;;;;;;0.50;0.40;;;;;;;32.89;31.25;94377.16;4971760;28;20446;-54
2022/09/28 11:40:27;;;;;;;0.40;0.30;;;;;;;33.21;30.57;94383.28;4971277;28;20484;-54
2022/09/28 11:43:08;;;;;;;0.40;0.30;;;;;;;32.53;30.44;94375.38;4971805;28;20434;-54
2022/09/28 11:45:51;;;;;;;0.30;0.20;;;;;;;31.62;30.32;94322.78;4971943;28;20906;-54
2022/09/28 11:48:26;;;;;;;0.30;0.20;;;;;;;32.13;31.88;94332.88;4971648;28;20520;-54
2022/09/28 11:50:59;;;;;;;0.30;0.20;;;;;;;33.38;31.92;94369.47;4971515;28;20823;-55
2022/09/28 11:53:34;;;;;;;0.40;0.30;;;;;;;33.03;30.55;94363.81;4971639;28;20456;-54
2022/09/28 11:56:14;;;;;;;0.30;0.20;;;;;;;32.97;31.75;94365.50;4971689;28;20927;-54
2022/09/28 11:58:47;;;;;;;0.30;0.30;;;;;;;33.06;30.73;94362.94;4971031;28;20425;-53
2022/09/28 12:01:24;;;;;;;0.30;0.30;;;;;;;32.67;31.22;94360.47;4971686;28;20441;-53